createdAt,value
2023-04-20T00:00:44.189Z,8.50
2023-04-20T00:03:12.613Z,8.50
2023-04-20T00:05:39.422Z,8.40
2023-04-20T00:08:06.204Z,8.30
2023-04-20T00:10:32.811Z,8.30
2023-04-20T00:12:59.409Z,8.40
2023-04-20T00:15:26.038Z,8.30
2023-04-20T00:17:53.556Z,8.20
2023-04-20T00:20:20.200Z,8.20
2023-04-20T00:22:46.799Z,8.20
2023-04-20T00:25:13.442Z,8.30
2023-04-20T00:27:40.200Z,8.20
2023-04-20T00:30:07.169Z,8.30
2023-04-20T00:32:33.751Z,8.30
2023-04-20T00:35:00.488Z,8.20
2023-04-20T00:37:27.194Z,8.30
2023-04-20T00:39:54.751Z,8.30
2023-04-20T00:42:21.314Z,8.40
2023-04-20T00:44:47.926Z,8.40
2023-04-20T00:47:14.462Z,8.40
2023-04-20T00:49:41.131Z,8.40
2023-04-20T00:52:08.252Z,8.30
2023-04-20T00:54:36.321Z,8.30
2023-04-20T00:57:04.236Z,8.50
2023-04-20T00:59:30.895Z,8.40
2023-04-20T01:01:57.710Z,8.40
2023-04-20T01:04:24.703Z,8.30
2023-04-20T01:06:51.338Z,8.40
2023-04-20T01:09:18.002Z,8.40
2023-04-20T01:11:44.785Z,8.40
2023-04-20T01:14:11.351Z,8.40
2023-04-20T01:16:38.001Z,8.40
2023-04-20T01:19:04.629Z,8.40
2023-04-20T01:21:32.077Z,8.50
2023-04-20T01:23:58.729Z,8.50
2023-04-20T01:26:25.910Z,8.50
2023-04-20T01:28:52.846Z,8.60
2023-04-20T01:31:19.809Z,8.60
2023-04-20T01:33:46.516Z,8.60
2023-04-20T01:36:13.280Z,8.60
2023-04-20T01:38:40.163Z,8.50
2023-04-20T01:41:07.843Z,8.50
2023-04-20T01:43:35.778Z,8.50
2023-04-20T01:46:02.834Z,8.50
2023-04-20T01:48:29.491Z,8.50
2023-04-20T01:50:56.151Z,8.50
2023-04-20T01:53:23.220Z,8.50
2023-04-20T01:55:50.136Z,8.40
2023-04-20T01:58:16.812Z,8.40
2023-04-20T02:00:44.065Z,8.50
2023-04-20T02:03:11.164Z,8.50
2023-04-20T02:05:37.903Z,8.50
2023-04-20T02:08:04.811Z,8.50
2023-04-20T02:10:31.441Z,8.50
2023-04-20T02:12:57.988Z,8.50
2023-04-20T02:15:24.601Z,8.60
2023-04-20T02:17:52.229Z,8.50
2023-04-20T02:20:19.857Z,8.40
2023-04-20T02:22:46.505Z,8.50
2023-04-20T02:25:13.514Z,8.40
2023-04-20T02:27:40.178Z,8.40
2023-04-20T02:30:08.814Z,8.40
2023-04-20T02:32:35.543Z,8.40
2023-04-20T02:35:03.916Z,8.60
2023-04-20T02:37:30.577Z,8.60
2023-04-20T02:39:57.183Z,8.60
2023-04-20T02:42:23.754Z,8.50
2023-04-20T02:44:50.396Z,8.60
2023-04-20T02:47:16.976Z,8.60
2023-04-20T02:49:43.741Z,8.50
2023-04-20T02:52:10.372Z,8.50
2023-04-20T02:54:36.931Z,8.50
2023-04-20T02:57:03.675Z,8.60
2023-04-20T02:59:30.307Z,8.60
2023-04-20T03:01:56.999Z,8.70
2023-04-20T03:04:23.762Z,8.70
2023-04-20T03:06:50.897Z,8.60
2023-04-20T03:09:18.484Z,8.70
2023-04-20T03:11:45.396Z,8.60
2023-04-20T03:14:11.975Z,8.70
2023-04-20T03:16:38.654Z,8.70
2023-04-20T03:19:05.327Z,8.60
2023-04-20T03:21:33.009Z,8.60
2023-04-20T03:24:00.166Z,8.60
2023-04-20T03:26:26.878Z,8.60
2023-04-20T03:28:53.475Z,8.60
2023-04-20T03:31:20.377Z,8.60
2023-04-20T03:33:46.998Z,8.50
2023-04-20T03:36:13.672Z,8.50
2023-04-20T03:38:40.365Z,8.40
2023-04-20T03:41:08.159Z,8.40
2023-04-20T03:43:35.190Z,8.30
2023-04-20T03:46:01.843Z,8.40
2023-04-20T03:48:28.447Z,8.30
2023-04-20T03:50:55.165Z,8.30
2023-04-20T03:53:21.869Z,8.40
2023-04-20T03:55:48.431Z,8.40
2023-04-20T03:58:15.595Z,8.40
2023-04-20T04:00:42.153Z,8.40
2023-04-20T04:03:09.059Z,8.40
2023-04-20T04:05:35.833Z,8.40
2023-04-20T04:08:02.502Z,8.40
2023-04-20T04:10:29.093Z,8.40
2023-04-20T04:12:55.946Z,8.50
2023-04-20T04:15:22.553Z,8.50
2023-04-20T04:17:49.252Z,8.50
2023-04-20T04:20:15.896Z,8.50
2023-04-20T04:22:42.700Z,8.50
2023-04-20T04:25:10.356Z,8.50
2023-04-20T04:27:37.637Z,8.50
2023-04-20T04:30:04.757Z,8.50
2023-04-20T04:32:31.368Z,8.50
2023-04-20T04:34:57.996Z,8.60
2023-04-20T04:37:24.814Z,8.60
2023-04-20T04:39:51.526Z,8.60
2023-04-20T04:42:18.157Z,8.60
2023-04-20T04:44:44.965Z,8.60
2023-04-20T04:47:14.280Z,8.60
2023-04-20T04:49:41.198Z,8.60
2023-04-20T04:52:08.359Z,8.50
2023-04-20T04:54:34.944Z,8.50
2023-04-20T04:57:01.603Z,8.50
2023-04-20T04:59:28.216Z,8.50
2023-04-20T05:01:54.858Z,8.50
2023-04-20T05:04:21.804Z,8.70
2023-04-20T05:06:48.488Z,8.70
2023-04-20T05:09:16.131Z,8.70
2023-04-20T05:11:43.009Z,8.70
2023-04-20T05:14:09.715Z,8.80
2023-04-20T05:16:36.423Z,8.80
2023-04-20T05:19:03.986Z,8.80
2023-04-20T05:21:30.908Z,8.90
2023-04-20T05:23:57.520Z,8.90
2023-04-20T05:26:24.233Z,8.90
2023-04-20T05:28:51.455Z,8.90
2023-04-20T05:31:18.107Z,8.90
2023-04-20T05:33:44.934Z,9.00
2023-04-20T05:36:11.712Z,9.00
2023-04-20T05:38:38.575Z,9.00
2023-04-20T05:41:05.395Z,8.90
2023-04-20T05:43:32.102Z,9.00
2023-04-20T05:45:58.895Z,9.00
2023-04-20T05:48:29.902Z,9.00
2023-04-20T05:50:57.037Z,9.10
2023-04-20T05:53:23.732Z,9.10
2023-04-20T05:55:50.356Z,9.20
2023-04-20T05:58:17.400Z,9.20
2023-04-20T06:00:44.456Z,9.30
2023-04-20T06:03:11.353Z,9.30
2023-04-20T06:05:38.326Z,9.40
2023-04-20T06:08:05.088Z,9.40
2023-04-20T06:10:34.183Z,9.30
2023-04-20T06:13:02.775Z,9.30
2023-04-20T06:15:29.385Z,9.30
2023-04-20T06:17:56.064Z,9.40
2023-04-20T06:20:22.925Z,9.30
2023-04-20T06:22:49.662Z,9.40
2023-04-20T06:25:16.375Z,9.50
2023-04-20T06:27:43.109Z,9.60
2023-04-20T06:30:10.317Z,9.60
2023-04-20T06:32:37.815Z,9.60
2023-04-20T06:35:04.996Z,9.60
2023-04-20T06:37:31.640Z,9.70
2023-04-20T06:39:58.363Z,9.70
2023-04-20T06:42:25.005Z,9.70
2023-04-20T06:44:51.636Z,9.50
2023-04-20T06:47:18.230Z,9.50
2023-04-20T06:49:44.923Z,9.50
2023-04-20T06:52:11.539Z,9.50
2023-04-20T06:54:38.187Z,9.50
2023-04-20T06:57:05.179Z,9.50
2023-04-20T06:59:31.772Z,9.60
2023-04-20T07:01:58.542Z,9.70
2023-04-20T07:04:25.305Z,9.90
2023-04-20T07:06:53.977Z,10.00
2023-04-20T07:09:23.000Z,10.10
2023-04-20T07:11:49.668Z,10.10
2023-04-20T07:14:16.470Z,10.10
2023-04-20T07:16:43.149Z,10.20
2023-04-20T07:19:09.799Z,10.40
2023-04-20T07:21:36.533Z,10.40
2023-04-20T07:24:03.222Z,10.50
2023-04-20T07:26:29.863Z,10.40
2023-04-20T07:28:56.498Z,10.30
2023-04-20T07:31:23.308Z,10.40
2023-04-20T07:33:49.915Z,10.50
2023-04-20T07:36:16.528Z,10.50
2023-04-20T07:38:43.352Z,10.50
2023-04-20T07:41:11.423Z,10.70
2023-04-20T07:43:38.874Z,10.80
2023-04-20T07:46:05.823Z,10.90
2023-04-20T07:48:33.704Z,11.00
2023-04-20T07:51:00.558Z,11.00
2023-04-20T07:53:27.599Z,10.90
2023-04-20T07:55:54.243Z,10.80
2023-04-20T07:58:21.615Z,10.80
2023-04-20T08:00:48.437Z,10.90
2023-04-20T08:03:15.231Z,10.90
2023-04-20T08:05:42.124Z,11.00
2023-04-20T08:08:08.835Z,11.00
2023-04-20T08:10:35.472Z,11.00
2023-04-20T08:13:02.132Z,11.00
2023-04-20T08:15:28.817Z,11.00
2023-04-20T08:17:55.655Z,11.00
2023-04-20T08:20:22.340Z,11.10
2023-04-20T08:22:49.325Z,11.10
2023-04-20T08:25:16.035Z,11.20
2023-04-20T08:27:42.647Z,11.30
2023-04-20T08:30:09.355Z,11.40
2023-04-20T08:32:36.262Z,11.50
2023-04-20T08:35:04.215Z,11.60
2023-04-20T08:37:32.713Z,11.70
2023-04-20T08:39:59.761Z,11.60
2023-04-20T08:42:26.405Z,11.70
2023-04-20T08:44:53.378Z,11.80
2023-04-20T08:47:21.202Z,11.80
2023-04-20T08:49:49.672Z,11.70
2023-04-20T08:52:18.344Z,11.50
2023-04-20T08:57:14.627Z,11.30
2023-04-20T08:59:41.237Z,11.20
2023-04-20T09:02:09.043Z,11.20
2023-04-20T09:04:36.171Z,11.20
2023-04-20T09:07:02.910Z,11.20
2023-04-20T09:09:29.520Z,11.10
2023-04-20T09:12:06.934Z,11.00
2023-04-20T09:14:44.021Z,10.90
2023-04-20T09:17:14.175Z,10.80
2023-04-20T09:19:41.171Z,10.70
2023-04-20T09:22:07.857Z,10.80
2023-04-20T09:24:35.221Z,10.70
2023-04-20T09:27:02.864Z,10.70
2023-04-20T09:29:30.242Z,10.60
2023-04-20T09:31:56.993Z,10.60
2023-04-20T09:34:23.874Z,10.60
2023-04-20T09:36:54.092Z,10.70
2023-04-20T09:39:21.538Z,10.70
2023-04-20T09:41:48.789Z,10.70
2023-04-20T09:44:16.591Z,10.60
2023-04-20T09:46:43.767Z,10.60
2023-04-20T09:49:11.634Z,10.70
2023-04-20T09:51:41.540Z,10.80
2023-04-20T09:54:08.638Z,10.90
2023-04-20T09:56:35.916Z,10.90
2023-04-20T09:59:03.860Z,11.00
2023-04-20T10:01:31.693Z,11.00
2023-04-20T10:03:59.361Z,11.00
2023-04-20T10:06:27.710Z,11.20
2023-04-20T10:08:54.594Z,11.30
2023-04-20T10:11:31.697Z,11.40
2023-04-20T10:14:18.062Z,11.40
2023-04-20T10:16:45.381Z,11.60
2023-04-20T10:19:12.413Z,11.80
2023-04-20T10:21:46.663Z,12.10
2023-04-20T10:24:13.877Z,12.30
2023-04-20T10:26:45.008Z,12.60
2023-04-20T10:29:12.609Z,12.80
2023-04-20T10:31:40.458Z,13.00
2023-04-20T10:34:07.515Z,13.30
2023-04-20T10:36:37.907Z,13.40
2023-04-20T10:39:17.321Z,13.60
2023-04-20T10:41:52.040Z,13.80
2023-04-20T10:44:18.779Z,14.50
2023-04-20T10:46:48.429Z,15.50
2023-04-20T10:49:15.570Z,15.80
2023-04-20T10:51:51.937Z,15.70
2023-04-20T10:54:19.137Z,16.00
2023-04-20T10:56:45.727Z,16.40
2023-04-20T10:59:16.747Z,17.50
2023-04-20T11:01:44.423Z,18.10
2023-04-20T11:04:11.766Z,18.00
2023-04-20T11:06:42.679Z,17.90
2023-04-20T11:09:23.655Z,17.30
2023-04-20T11:12:03.871Z,16.80
2023-04-20T11:14:31.415Z,16.20
2023-04-20T11:16:58.163Z,15.60
2023-04-20T11:19:25.974Z,15.40
2023-04-20T11:21:52.750Z,15.20
2023-04-20T11:24:20.304Z,15.60
2023-04-20T11:26:49.932Z,15.50
2023-04-20T11:29:29.862Z,15.50
2023-04-20T11:31:58.010Z,15.30
2023-04-20T11:34:24.770Z,15.70
2023-04-20T11:36:51.569Z,16.00
2023-04-20T11:39:24.663Z,15.90
2023-04-20T11:41:52.376Z,15.60
2023-04-20T11:44:22.570Z,15.70
2023-04-20T11:46:50.262Z,15.70
2023-04-20T11:49:17.276Z,15.40
2023-04-20T11:51:44.691Z,15.20
2023-04-20T11:54:11.761Z,15.00
2023-04-20T11:56:38.706Z,15.10
2023-04-20T11:59:05.435Z,15.20
2023-04-20T12:01:33.152Z,15.30
2023-04-20T12:04:01.941Z,15.20
2023-04-20T12:06:29.012Z,15.20
2023-04-20T12:08:56.240Z,15.30
2023-04-20T12:11:22.926Z,15.40
2023-04-20T12:13:49.531Z,15.30
2023-04-20T12:16:16.234Z,15.30
2023-04-20T12:18:42.910Z,15.90
2023-04-20T12:21:09.563Z,16.50
2023-04-20T12:23:39.192Z,17.10
2023-04-20T12:26:06.586Z,17.90
2023-04-20T12:28:33.305Z,18.70
2023-04-20T12:31:00.330Z,18.60
2023-04-20T12:33:26.967Z,18.20
2023-04-20T12:35:53.542Z,19.00
2023-04-20T12:38:20.196Z,20.00
2023-04-20T12:40:46.835Z,21.00
2023-04-20T12:43:13.445Z,21.50
2023-04-20T12:45:40.431Z,22.20
2023-04-20T12:48:07.133Z,22.40
2023-04-20T12:50:33.755Z,22.70
2023-04-20T12:53:00.453Z,22.10
2023-04-20T12:55:27.103Z,21.10
2023-04-20T12:57:53.703Z,20.70
2023-04-20T13:00:20.273Z,20.30
2023-04-20T13:02:47.091Z,20.80
2023-04-20T13:05:13.850Z,20.60
2023-04-20T13:07:40.448Z,19.90
2023-04-20T13:10:07.345Z,19.40
2023-04-20T13:12:33.944Z,18.70
2023-04-20T13:15:00.617Z,18.20
2023-04-20T13:17:27.291Z,17.90
2023-04-20T13:19:54.042Z,18.60
2023-04-20T13:22:20.803Z,18.50
2023-04-20T13:24:47.391Z,18.30
2023-04-20T13:27:14.329Z,18.10
2023-04-20T13:29:41.387Z,18.00
2023-04-20T13:32:08.107Z,17.90
2023-04-20T13:34:34.842Z,17.90
2023-04-20T13:37:01.492Z,17.80
2023-04-20T13:39:28.099Z,17.70
2023-04-20T13:41:54.778Z,17.70
2023-04-20T13:44:21.550Z,17.60
2023-04-20T13:46:48.434Z,17.50
2023-04-20T13:49:16.775Z,17.40
2023-04-20T13:51:43.389Z,17.30
2023-04-20T13:54:09.953Z,17.30
2023-04-20T13:56:39.283Z,17.30
2023-04-20T13:59:05.931Z,17.10
2023-04-20T14:01:32.706Z,17.10
2023-04-20T14:03:59.569Z,17.10
2023-04-20T14:06:27.520Z,17.10
2023-04-20T14:08:54.462Z,17.20
2023-04-20T14:11:21.095Z,17.30
2023-04-20T14:13:47.852Z,17.60
2023-04-20T14:16:14.853Z,18.30
2023-04-20T14:18:41.697Z,18.90
2023-04-20T14:21:08.344Z,19.40
2023-04-20T14:23:35.048Z,19.40
2023-04-20T14:26:03.818Z,19.20
2023-04-20T14:28:31.842Z,18.90
2023-04-20T14:31:00.897Z,18.90
2023-04-20T14:33:28.158Z,18.90
2023-04-20T14:35:54.804Z,18.80
2023-04-20T14:38:21.422Z,18.50
2023-04-20T14:40:48.490Z,18.40
2023-04-20T14:43:15.438Z,18.20
2023-04-20T14:45:44.628Z,17.90
2023-04-20T14:48:11.494Z,17.80
2023-04-20T14:50:38.348Z,17.70
2023-04-20T14:53:05.052Z,17.60
2023-04-20T14:55:31.729Z,17.60
2023-04-20T14:57:58.388Z,18.00
2023-04-20T15:00:25.756Z,18.00
2023-04-20T15:02:52.980Z,17.90
2023-04-20T15:05:20.156Z,17.70
2023-04-20T15:07:50.569Z,17.60
2023-04-20T15:10:18.494Z,17.50
2023-04-20T15:12:45.884Z,17.40
2023-04-20T15:15:12.488Z,17.40
2023-04-20T15:17:39.090Z,17.30
2023-04-20T15:20:06.335Z,17.30
2023-04-20T15:22:32.963Z,17.20
2023-04-20T15:24:59.631Z,17.10
2023-04-20T15:27:26.287Z,17.00
2023-04-20T15:29:52.925Z,16.90
2023-04-20T15:32:19.620Z,16.80
2023-04-20T15:34:46.274Z,16.90
2023-04-20T15:37:12.932Z,16.90
2023-04-20T15:39:39.561Z,16.80
2023-04-20T15:42:06.194Z,16.70
2023-04-20T15:44:32.839Z,16.80
2023-04-20T15:46:59.527Z,16.90
2023-04-20T15:49:26.189Z,16.90
2023-04-20T15:51:53.061Z,16.90
2023-04-20T15:54:23.500Z,16.90
2023-04-20T15:56:51.061Z,17.00
2023-04-20T15:59:18.329Z,17.10
2023-04-20T16:01:45.148Z,17.10
2023-04-20T16:04:12.131Z,17.10
2023-04-20T16:06:39.973Z,17.10
2023-04-20T16:09:07.033Z,17.10
2023-04-20T16:11:34.885Z,17.10
2023-04-20T16:14:01.799Z,17.10
2023-04-20T16:16:28.533Z,17.20
2023-04-20T16:18:55.311Z,17.20
2023-04-20T16:21:23.307Z,17.30
2023-04-20T16:23:53.425Z,17.20
2023-04-20T16:26:20.885Z,17.20
2023-04-20T16:28:47.534Z,17.10
2023-04-20T16:31:14.233Z,17.10
2023-04-20T16:33:41.366Z,17.00
2023-04-20T16:36:08.335Z,17.00
2023-04-20T16:38:34.973Z,17.00
2023-04-20T16:41:01.561Z,17.00
2023-04-20T16:43:28.200Z,17.00
2023-04-20T16:45:54.978Z,17.00
2023-04-20T16:48:21.782Z,16.90
2023-04-20T16:50:48.488Z,16.90
2023-04-20T16:53:15.164Z,16.90
2023-04-20T16:55:41.821Z,16.90
2023-04-20T16:58:08.435Z,16.90
2023-04-20T17:00:35.459Z,16.90
2023-04-20T17:03:03.612Z,16.90
2023-04-20T17:05:30.449Z,16.90
2023-04-20T17:07:57.049Z,16.80
2023-04-20T17:10:23.712Z,16.90
2023-04-20T17:12:50.726Z,16.90
2023-04-20T17:15:17.315Z,16.80
2023-04-20T17:17:43.958Z,16.80
2023-04-20T17:20:10.761Z,16.80
2023-04-20T17:22:37.383Z,16.70
2023-04-20T17:25:06.466Z,16.70
2023-04-20T17:27:34.091Z,16.60
2023-04-20T17:30:00.772Z,16.60
2023-04-20T17:32:28.250Z,16.40
2023-04-20T17:34:54.848Z,16.40
2023-04-20T17:37:22.308Z,16.40
2023-04-20T17:39:48.946Z,16.40
2023-04-20T17:42:15.571Z,16.30
2023-04-20T17:44:42.214Z,16.30
2023-04-20T17:47:09.526Z,16.20
2023-04-20T17:49:36.610Z,16.10
2023-04-20T17:52:03.413Z,16.10
2023-04-20T17:54:30.050Z,16.00
2023-04-20T17:56:57.995Z,15.90
2023-04-20T17:59:24.650Z,15.90
2023-04-20T18:01:51.436Z,16.00
2023-04-20T18:04:18.673Z,16.00
2023-04-20T18:06:45.569Z,16.00
2023-04-20T18:09:14.060Z,15.90
2023-04-20T18:11:40.930Z,15.80
2023-04-20T18:14:07.561Z,15.80
2023-04-20T18:16:34.231Z,15.70
2023-04-20T18:19:00.846Z,15.70
2023-04-20T18:21:29.510Z,15.60
2023-04-20T18:23:56.097Z,15.50
2023-04-20T18:26:23.624Z,15.50
2023-04-20T18:28:50.360Z,15.50
2023-04-20T18:31:17.009Z,15.40
2023-04-20T18:33:43.626Z,15.40
2023-04-20T18:36:10.238Z,15.30
2023-04-20T18:38:36.870Z,15.30
2023-04-20T18:41:03.459Z,15.30
2023-04-20T18:43:30.046Z,15.30
2023-04-20T18:45:56.667Z,15.20
2023-04-20T18:48:23.263Z,15.20
2023-04-20T18:50:49.829Z,15.20
2023-04-20T18:53:16.670Z,15.10
2023-04-20T18:55:43.526Z,15.10
2023-04-20T18:58:10.103Z,15.10
2023-04-20T19:00:36.737Z,15.00
2023-04-20T19:03:04.319Z,15.00
2023-04-20T19:05:31.579Z,15.00
2023-04-20T19:07:58.110Z,14.90
2023-04-20T19:10:25.975Z,14.90
2023-04-20T19:12:52.593Z,14.90
2023-04-20T19:15:25.360Z,14.80
2023-04-20T19:17:53.006Z,14.90
2023-04-20T19:20:19.703Z,14.80
2023-04-20T19:22:46.301Z,14.80
2023-04-20T19:25:12.917Z,14.80
2023-04-20T19:27:39.604Z,14.80
2023-04-20T19:30:07.126Z,14.80
2023-04-20T19:32:34.015Z,14.60
2023-04-20T19:35:00.817Z,14.70
2023-04-20T19:37:27.489Z,14.60
2023-04-20T19:39:54.329Z,14.60
2023-04-20T19:42:22.792Z,14.60
2023-04-20T19:44:49.451Z,14.60
2023-04-20T19:47:16.085Z,14.60
2023-04-20T19:49:42.675Z,14.50
2023-04-20T19:52:09.294Z,14.50
2023-04-20T19:54:35.982Z,14.40
2023-04-20T19:57:02.603Z,14.50
2023-04-20T19:59:30.299Z,14.40
2023-04-20T20:01:56.950Z,14.40
2023-04-20T20:04:23.903Z,14.40
2023-04-20T20:06:51.102Z,14.40
2023-04-20T20:09:18.471Z,14.40
2023-04-20T20:11:50.148Z,14.30
2023-04-20T20:14:17.165Z,14.30
2023-04-20T20:16:43.841Z,14.30
2023-04-20T20:19:10.520Z,14.20
2023-04-20T20:21:37.225Z,14.20
2023-04-20T20:24:03.970Z,14.20
2023-04-20T20:26:30.607Z,14.20
2023-04-20T20:28:57.192Z,14.20
2023-04-20T20:31:23.838Z,14.10
2023-04-20T20:33:50.504Z,14.10
2023-04-20T20:36:17.771Z,14.10
2023-04-20T20:38:44.462Z,14.10
2023-04-20T20:41:13.530Z,14.10
2023-04-20T20:43:43.401Z,14.10
2023-04-20T20:46:10.121Z,14.00
2023-04-20T20:48:36.786Z,14.00
2023-04-20T20:51:03.479Z,14.00
2023-04-20T20:53:30.059Z,14.00
2023-04-20T20:55:56.612Z,13.90
2023-04-20T20:58:23.219Z,13.90
2023-04-20T21:00:49.869Z,13.80
2023-04-20T21:03:16.630Z,13.80
2023-04-20T21:05:43.440Z,13.80
2023-04-20T21:08:10.055Z,13.80
2023-04-20T21:10:36.682Z,13.90
2023-04-20T21:13:04.238Z,13.90
2023-04-20T21:15:30.952Z,13.90
2023-04-20T21:17:57.583Z,13.80
2023-04-20T21:20:24.290Z,13.80
2023-04-20T21:22:50.967Z,13.80
2023-04-20T21:25:17.624Z,13.80
2023-04-20T21:27:44.298Z,13.80
2023-04-20T21:30:11.222Z,13.80
2023-04-20T21:32:37.989Z,13.80
2023-04-20T21:35:04.823Z,13.70
2023-04-20T21:37:31.549Z,13.70
2023-04-20T21:39:58.174Z,13.80
2023-04-20T21:42:24.850Z,13.70
2023-04-20T21:44:51.490Z,13.80
2023-04-20T21:47:18.241Z,13.70
2023-04-20T21:49:44.963Z,13.70
2023-04-20T21:52:11.668Z,13.70
2023-04-20T21:54:40.079Z,13.60
2023-04-20T21:57:07.074Z,13.60
2023-04-20T21:59:33.688Z,13.60
2023-04-20T22:02:00.429Z,13.60
2023-04-20T22:04:27.426Z,13.60
2023-04-20T22:06:55.467Z,13.50
2023-04-20T22:09:22.749Z,13.50
2023-04-20T22:11:49.967Z,13.50
2023-04-20T22:14:17.146Z,13.50
2023-04-20T22:16:43.824Z,13.50
2023-04-20T22:19:10.442Z,13.50
2023-04-20T22:21:37.117Z,13.50
2023-04-20T22:24:04.033Z,13.50
2023-04-20T22:26:30.668Z,13.50
2023-04-20T22:28:57.292Z,13.50
2023-04-20T22:31:24.064Z,13.40
2023-04-20T22:33:50.717Z,13.40
2023-04-20T22:36:17.436Z,13.40
2023-04-20T22:38:44.251Z,13.40
2023-04-20T22:41:10.950Z,13.50
2023-04-20T22:43:37.586Z,13.50
2023-04-20T22:46:04.284Z,13.50
2023-04-20T22:48:30.930Z,13.40
2023-04-20T22:51:00.593Z,13.40
2023-04-20T22:53:29.745Z,13.40
2023-04-20T22:56:03.013Z,13.40
2023-04-20T22:58:29.747Z,13.30
2023-04-20T23:00:56.356Z,13.40
2023-04-20T23:03:23.274Z,13.30
2023-04-20T23:05:50.050Z,13.30
2023-04-20T23:08:17.532Z,13.30
2023-04-20T23:10:45.382Z,13.20
2023-04-20T23:13:17.040Z,13.30
2023-04-20T23:15:43.606Z,13.30
2023-04-20T23:18:10.548Z,13.20
2023-04-20T23:20:37.712Z,13.10
2023-04-20T23:23:04.833Z,13.10
2023-04-20T23:25:31.496Z,13.10
2023-04-20T23:27:58.079Z,13.10
2023-04-20T23:30:24.660Z,13.10
2023-04-20T23:32:51.413Z,13.10
2023-04-20T23:35:18.944Z,13.10
2023-04-20T23:37:45.631Z,13.00
2023-04-20T23:40:12.876Z,13.00
2023-04-20T23:42:39.543Z,13.00
2023-04-20T23:45:06.613Z,13.00
2023-04-20T23:47:33.363Z,12.90
2023-04-20T23:50:00.175Z,13.00
2023-04-20T23:52:26.733Z,12.90
2023-04-20T23:54:53.347Z,12.90
2023-04-20T23:57:19.949Z,12.90
2023-04-20T23:59:46.532Z,12.90
